createdAt,value
2023-01-13T00:00:18.530Z,72.67
2023-01-13T00:01:22.611Z,71.83
2023-01-13T00:02:24.332Z,73.35
2023-01-13T00:03:26.295Z,72.38
2023-01-13T00:04:29.344Z,73.49
2023-01-13T00:05:31.066Z,72.59
2023-01-13T00:06:33.134Z,71.77
2023-01-13T00:07:34.870Z,71.31
2023-01-13T00:08:36.676Z,71.44
2023-01-13T00:09:39.797Z,72.30
2023-01-13T00:10:41.565Z,72.28
2023-01-13T00:11:43.741Z,72.27
2023-01-13T00:12:45.818Z,71.56
2023-01-13T00:13:48.257Z,71.72
2023-01-13T00:14:50.381Z,70.71
2023-01-13T00:16:04.181Z,72.08
2023-01-13T00:17:05.950Z,71.50
2023-01-13T00:18:07.656Z,71.72
2023-01-13T00:19:09.472Z,71.58
2023-01-13T00:20:12.125Z,72.87
2023-01-13T00:21:19.522Z,71.82
2023-01-13T00:22:23.526Z,72.54
2023-01-13T00:23:25.238Z,71.32
2023-01-13T00:24:27.252Z,71.74
2023-01-13T00:25:29.253Z,74.18
2023-01-13T00:26:33.717Z,72.99
2023-01-13T00:27:36.089Z,72.63
2023-01-13T00:28:38.692Z,72.49
2023-01-13T00:29:40.564Z,72.64
2023-01-13T00:30:42.665Z,72.83
2023-01-13T00:31:44.251Z,73.37
2023-01-13T00:32:49.004Z,73.29
2023-01-13T00:33:51.143Z,73.48
2023-01-13T00:34:53.413Z,73.20
2023-01-13T00:35:59.066Z,71.75
2023-01-13T00:37:01.099Z,72.06
2023-01-13T00:38:03.215Z,72.03
2023-01-13T00:39:04.960Z,72.02
2023-01-13T00:40:07.756Z,71.38
2023-01-13T00:41:11.418Z,72.92
2023-01-13T00:42:31.882Z,72.54
2023-01-13T00:43:35.199Z,73.73
2023-01-13T00:44:37.323Z,74.77
2023-01-13T00:45:39.549Z,73.32
2023-01-13T00:46:41.670Z,72.63
2023-01-13T00:47:43.690Z,72.42
2023-01-13T00:48:46.288Z,71.92
2023-01-13T00:49:47.844Z,72.01
2023-01-13T00:50:57.329Z,73.79
2023-01-13T00:51:59.048Z,72.31
2023-01-13T00:53:00.918Z,72.77
2023-01-13T00:54:02.618Z,77.10
2023-01-13T00:55:04.617Z,72.34
2023-01-13T00:56:10.416Z,72.13
2023-01-13T00:57:12.240Z,72.11
2023-01-13T00:58:13.963Z,74.79
2023-01-13T00:59:15.953Z,71.82
2023-01-13T01:00:18.210Z,71.91
2023-01-13T01:01:22.353Z,72.55
2023-01-13T01:02:24.254Z,72.24
2023-01-13T01:03:26.532Z,71.44
2023-01-13T01:04:28.327Z,71.65
2023-01-13T01:05:30.036Z,71.27
2023-01-13T01:06:31.981Z,71.38
2023-01-13T01:07:33.719Z,74.07
2023-01-13T01:08:35.908Z,71.98
2023-01-13T01:09:39.654Z,70.97
2023-01-13T01:10:41.469Z,71.33
2023-01-13T01:11:43.979Z,70.01
2023-01-13T01:12:45.529Z,69.52
2023-01-13T01:13:48.113Z,70.02
2023-01-13T01:14:49.988Z,69.59
2023-01-13T01:15:51.783Z,70.42
2023-01-13T01:16:54.669Z,70.03
2023-01-13T01:17:56.457Z,69.78
2023-01-13T01:18:58.702Z,70.01
2023-01-13T01:20:00.427Z,69.68
2023-01-13T01:21:02.366Z,71.58
2023-01-13T01:22:04.422Z,70.69
2023-01-13T01:23:06.476Z,70.17
2023-01-13T01:24:09.754Z,70.35
2023-01-13T01:25:11.440Z,70.29
2023-01-13T01:26:15.509Z,69.47
2023-01-13T01:27:17.187Z,68.92
2023-01-13T01:28:20.702Z,68.06
2023-01-13T01:29:22.686Z,68.82
2023-01-13T01:30:24.576Z,68.46
2023-01-13T01:31:29.004Z,69.34
2023-01-13T01:32:31.038Z,70.36
2023-01-13T01:33:32.813Z,68.95
2023-01-13T01:34:34.656Z,68.90
2023-01-13T01:35:40.033Z,69.55
2023-01-13T01:36:41.947Z,68.57
2023-01-13T01:37:44.120Z,69.24
2023-01-13T01:38:47.127Z,68.90
2023-01-13T01:39:48.867Z,70.11
2023-01-13T01:40:50.625Z,68.19
2023-01-13T01:42:15.364Z,68.13
2023-01-13T01:43:41.211Z,69.68
2023-01-13T01:44:43.331Z,69.42
2023-01-13T01:45:45.130Z,68.42
2023-01-13T01:46:46.807Z,69.00
2023-01-13T01:47:51.760Z,67.97
2023-01-13T01:48:53.889Z,68.37
2023-01-13T01:49:56.741Z,68.78
2023-01-13T01:50:58.718Z,68.07
2023-01-13T01:52:08.016Z,69.14
2023-01-13T01:53:13.701Z,69.61
2023-01-13T01:54:26.483Z,69.20
2023-01-13T01:55:31.568Z,68.60
2023-01-13T01:56:33.986Z,68.79
2023-01-13T01:57:54.872Z,69.04
2023-01-13T01:58:56.690Z,68.67
2023-01-13T02:00:00.955Z,68.53
2023-01-13T02:01:02.926Z,70.17
2023-01-13T02:02:29.171Z,68.54
2023-01-13T02:03:30.843Z,68.26
2023-01-13T02:04:36.575Z,68.88
2023-01-13T02:05:38.954Z,68.18
2023-01-13T02:06:41.092Z,69.13
2023-01-13T02:07:43.587Z,68.01
2023-01-13T02:08:45.066Z,68.76
2023-01-13T02:09:47.237Z,68.09
2023-01-13T02:10:53.367Z,68.94
2023-01-13T02:12:13.576Z,68.37
2023-01-13T02:13:15.165Z,67.65
2023-01-13T02:14:17.343Z,67.19
2023-01-13T02:15:23.264Z,68.54
2023-01-13T02:16:24.904Z,68.85
2023-01-13T02:18:04.075Z,67.99
2023-01-13T02:19:30.656Z,67.49
2023-01-13T02:20:55.227Z,68.25
2023-01-13T02:22:27.667Z,67.53
2023-01-13T02:23:57.606Z,67.56
2023-01-13T02:25:26.572Z,67.28
2023-01-13T02:26:52.373Z,67.18
2023-01-13T02:28:11.332Z,66.45
2023-01-13T02:29:37.657Z,66.79
2023-01-13T02:31:28.635Z,67.11
2023-01-13T02:32:34.468Z,66.76
2023-01-13T02:33:51.293Z,67.11
2023-01-13T02:35:01.549Z,66.29
2023-01-13T02:36:18.280Z,66.25
2023-01-13T02:37:28.613Z,65.52
2023-01-13T02:38:34.760Z,66.58
2023-01-13T02:39:41.910Z,65.66
2023-01-13T02:40:56.800Z,66.51
2023-01-13T02:42:26.524Z,66.18
2023-01-13T02:43:48.307Z,65.40
2023-01-13T02:45:02.895Z,65.99
2023-01-13T02:46:30.163Z,65.48
2023-01-13T02:47:36.101Z,66.40
2023-01-13T02:48:38.527Z,65.91
2023-01-13T02:49:45.392Z,66.11
2023-01-13T02:51:17.528Z,65.66
2023-01-13T02:52:42.957Z,65.91
2023-01-13T02:54:04.046Z,65.58
2023-01-13T02:55:28.723Z,67.58
2023-01-13T02:56:31.833Z,67.87
2023-01-13T02:57:34.715Z,65.11
2023-01-13T02:58:37.528Z,66.78
2023-01-13T02:59:40.297Z,65.92
2023-01-13T03:00:42.333Z,66.03
2023-01-13T03:01:44.044Z,65.65
2023-01-13T03:02:47.997Z,66.30
2023-01-13T03:03:50.127Z,65.17
2023-01-13T03:05:02.159Z,65.76
2023-01-13T03:06:29.962Z,66.58
2023-01-13T03:08:09.159Z,66.17
2023-01-13T03:09:22.953Z,69.26
2023-01-13T03:10:39.901Z,65.55
2023-01-13T03:12:10.692Z,65.43
2023-01-13T03:13:46.903Z,65.00
2023-01-13T03:14:59.852Z,66.08
2023-01-13T03:16:11.089Z,66.15
2023-01-13T03:17:22.487Z,65.91
2023-01-13T03:18:43.019Z,67.53
2023-01-13T03:19:52.225Z,67.31
2023-01-13T03:21:27.323Z,66.17
2023-01-13T03:22:39.887Z,64.48
2023-01-13T03:23:49.698Z,65.66
2023-01-13T03:25:14.227Z,67.96
2023-01-13T03:26:40.400Z,64.59
2023-01-13T03:28:13.514Z,64.89
2023-01-13T03:29:22.657Z,67.09
2023-01-13T03:30:34.435Z,65.15
2023-01-13T03:31:41.247Z,63.66
2023-01-13T03:32:45.444Z,65.92
2023-01-13T03:33:55.820Z,64.57
2023-01-13T03:35:05.009Z,65.38
2023-01-13T03:36:09.484Z,63.84
2023-01-13T03:37:12.789Z,65.52
2023-01-13T03:38:21.123Z,64.16
2023-01-13T03:39:28.027Z,64.41
2023-01-13T03:40:33.817Z,64.79
2023-01-13T03:41:39.190Z,64.12
2023-01-13T03:42:41.977Z,64.19
2023-01-13T03:44:12.481Z,63.71
2023-01-13T03:45:17.729Z,64.44
2023-01-13T03:47:04.460Z,64.09
2023-01-13T03:48:09.086Z,66.94
2023-01-13T03:49:14.069Z,64.81
2023-01-13T03:50:21.959Z,66.77
2023-01-13T03:51:25.253Z,67.07
2023-01-13T03:52:31.910Z,65.98
2023-01-13T03:53:37.849Z,65.37
2023-01-13T03:54:48.453Z,63.90
2023-01-13T03:55:58.167Z,66.59
2023-01-13T03:57:04.117Z,65.63
2023-01-13T03:58:10.441Z,65.60
2023-01-13T03:59:17.511Z,66.19
2023-01-13T04:00:23.673Z,65.17
2023-01-13T04:01:29.576Z,64.98
2023-01-13T04:02:47.361Z,66.41
2023-01-13T04:04:05.613Z,66.16
2023-01-13T04:05:09.374Z,64.90
2023-01-13T04:06:21.473Z,66.18
2023-01-13T04:07:25.911Z,65.54
2023-01-13T04:08:28.321Z,65.02
2023-01-13T04:09:48.096Z,65.08
2023-01-13T04:10:53.723Z,65.02
2023-01-13T04:12:01.649Z,65.56
2023-01-13T04:13:07.016Z,66.53
2023-01-13T04:14:10.637Z,65.95
2023-01-13T04:15:12.324Z,69.22
2023-01-13T04:16:14.037Z,65.74
2023-01-13T04:17:16.257Z,66.33
2023-01-13T04:18:28.602Z,65.94
2023-01-13T04:19:31.267Z,66.92
2023-01-13T04:20:32.872Z,67.29
2023-01-13T04:21:35.473Z,67.58
2023-01-13T04:22:37.107Z,65.97
2023-01-13T04:23:38.771Z,64.92
2023-01-13T04:24:40.361Z,67.04
2023-01-13T04:25:42.919Z,66.15
2023-01-13T04:26:44.366Z,65.85
2023-01-13T04:27:45.961Z,65.90
2023-01-13T04:28:47.711Z,65.94
2023-01-13T04:29:49.242Z,65.70
2023-01-13T04:30:50.870Z,65.32
2023-01-13T04:31:52.511Z,66.38
2023-01-13T04:32:54.108Z,65.93
2023-01-13T04:33:55.822Z,65.50
2023-01-13T04:34:57.882Z,65.05
2023-01-13T04:35:59.560Z,64.86
2023-01-13T04:37:01.114Z,65.56
2023-01-13T04:38:04.357Z,65.28
2023-01-13T04:39:06.001Z,65.02
2023-01-13T04:40:08.360Z,65.82
2023-01-13T04:41:09.960Z,65.17
2023-01-13T04:42:11.521Z,65.25
2023-01-13T04:43:15.591Z,65.64
2023-01-13T04:44:17.235Z,65.45
2023-01-13T04:45:18.865Z,65.62
2023-01-13T04:46:20.572Z,65.55
2023-01-13T04:47:22.458Z,67.32
2023-01-13T04:48:24.034Z,66.68
2023-01-13T04:49:25.720Z,65.34
2023-01-13T04:50:27.782Z,66.56
2023-01-13T04:51:29.369Z,65.66
2023-01-13T04:52:31.070Z,66.54
2023-01-13T04:53:32.620Z,65.87
2023-01-13T04:54:34.288Z,64.97
2023-01-13T04:55:35.931Z,65.41
2023-01-13T04:56:37.525Z,65.58
2023-01-13T04:57:39.158Z,64.85
2023-01-13T04:58:40.751Z,65.30
2023-01-13T04:59:42.473Z,67.89
2023-01-13T05:00:44.119Z,64.97
2023-01-13T05:01:45.870Z,64.58
2023-01-13T05:02:50.102Z,64.60
2023-01-13T05:03:51.730Z,64.93
2023-01-13T05:04:53.424Z,65.49
2023-01-13T05:05:55.023Z,63.85
2023-01-13T05:06:56.737Z,64.04
2023-01-13T05:07:58.542Z,64.33
2023-01-13T05:09:00.113Z,65.39
2023-01-13T05:10:01.977Z,64.41
2023-01-13T05:11:26.286Z,64.21
2023-01-13T05:12:46.522Z,65.56
2023-01-13T05:14:06.503Z,64.53
2023-01-13T05:15:28.438Z,64.14
2023-01-13T05:16:48.321Z,64.15
2023-01-13T05:17:50.345Z,64.75
2023-01-13T05:18:51.939Z,64.04
2023-01-13T05:19:53.561Z,65.74
2023-01-13T05:20:55.152Z,64.22
2023-01-13T05:22:16.408Z,66.26
2023-01-13T05:23:36.609Z,64.35
2023-01-13T05:24:56.845Z,64.33
2023-01-13T05:25:58.511Z,63.87
2023-01-13T05:27:00.149Z,63.91
2023-01-13T05:28:01.773Z,64.23
2023-01-13T05:29:03.373Z,63.98
2023-01-13T05:30:06.084Z,64.10
2023-01-13T05:31:07.783Z,63.87
2023-01-13T05:32:09.462Z,64.15
2023-01-13T05:33:12.293Z,64.59
2023-01-13T05:34:13.943Z,65.37
2023-01-13T05:35:16.153Z,64.80
2023-01-13T05:36:18.526Z,66.31
2023-01-13T05:37:20.157Z,64.82
2023-01-13T05:38:21.851Z,65.41
2023-01-13T05:39:23.488Z,65.43
2023-01-13T05:40:43.775Z,64.86
2023-01-13T05:42:03.957Z,65.14
2023-01-13T05:43:19.808Z,65.36
2023-01-13T05:44:21.406Z,65.33
2023-01-13T05:45:23.456Z,66.97
2023-01-13T05:46:25.186Z,65.86
2023-01-13T05:47:26.814Z,65.91
2023-01-13T05:48:32.214Z,65.97
2023-01-13T05:49:33.868Z,65.64
2023-01-13T05:50:35.418Z,66.02
2023-01-13T05:51:39.873Z,65.73
2023-01-13T05:52:41.547Z,66.55
2023-01-13T05:53:43.152Z,68.31
2023-01-13T05:54:44.747Z,66.95
2023-01-13T05:55:46.748Z,65.57
2023-01-13T05:56:48.494Z,66.11
2023-01-13T05:57:50.062Z,66.70
2023-01-13T05:58:51.561Z,67.23
2023-01-13T05:59:53.174Z,67.57
2023-01-13T06:01:02.951Z,68.00
2023-01-13T06:02:04.649Z,67.39
2023-01-13T06:03:06.476Z,67.74
2023-01-13T06:04:08.068Z,67.29
2023-01-13T06:05:09.683Z,67.01
2023-01-13T06:06:11.312Z,68.33
2023-01-13T06:07:12.920Z,68.47
2023-01-13T06:08:14.914Z,68.05
2023-01-13T06:09:16.593Z,67.98
2023-01-13T06:10:18.243Z,68.81
2023-01-13T06:11:19.830Z,68.34
2023-01-13T06:12:21.475Z,68.58
2023-01-13T06:13:25.179Z,69.17
2023-01-13T06:14:39.890Z,69.95
2023-01-13T06:15:41.502Z,69.76
2023-01-13T06:16:43.190Z,68.66
2023-01-13T06:17:44.816Z,69.07
2023-01-13T06:18:46.401Z,69.59
2023-01-13T06:19:48.027Z,69.65
2023-01-13T06:20:49.590Z,69.54
2023-01-13T06:21:51.213Z,69.48
2023-01-13T06:22:53.571Z,69.34
2023-01-13T06:23:55.164Z,69.37
2023-01-13T06:24:56.744Z,70.12
2023-01-13T06:26:07.988Z,70.16
2023-01-13T06:27:10.006Z,70.23
2023-01-13T06:28:11.638Z,70.20
2023-01-13T06:29:15.000Z,69.83
2023-01-13T06:30:17.497Z,69.83
2023-01-13T06:31:19.000Z,70.58
2023-01-13T06:32:24.626Z,70.65
2023-01-13T06:33:32.837Z,70.25
2023-01-13T06:34:35.612Z,70.00
2023-01-13T06:35:37.955Z,70.50
2023-01-13T06:36:46.510Z,69.90
2023-01-13T06:37:50.259Z,70.08
2023-01-13T06:38:54.868Z,70.93
2023-01-13T06:39:58.555Z,69.78
2023-01-13T06:41:00.147Z,69.63
2023-01-13T06:42:21.849Z,70.08
2023-01-13T06:43:23.484Z,70.04
2023-01-13T06:44:25.119Z,69.73
2023-01-13T06:45:27.651Z,69.23
2023-01-13T06:46:29.189Z,69.38
2023-01-13T06:47:31.500Z,69.19
2023-01-13T06:48:35.191Z,69.95
2023-01-13T06:49:37.002Z,69.62
2023-01-13T06:50:38.934Z,69.51
2023-01-13T06:51:40.493Z,69.94
2023-01-13T06:52:42.083Z,68.86
2023-01-13T06:53:43.704Z,68.83
2023-01-13T06:54:45.289Z,69.26
2023-01-13T06:55:47.018Z,69.20
2023-01-13T06:56:48.615Z,69.50
2023-01-13T06:57:52.202Z,69.39
2023-01-13T06:58:53.820Z,68.78
2023-01-13T06:59:55.439Z,69.41
2023-01-13T07:01:00.619Z,69.14
2023-01-13T07:02:02.910Z,69.09
2023-01-13T07:03:07.220Z,68.78
2023-01-13T07:04:08.935Z,69.27
2023-01-13T07:05:10.922Z,69.07
2023-01-13T07:06:12.498Z,69.06
2023-01-13T07:07:14.282Z,70.27
2023-01-13T07:08:15.843Z,69.24
2023-01-13T07:09:17.459Z,68.18
2023-01-13T07:10:22.228Z,68.90
2023-01-13T07:11:24.961Z,68.64
2023-01-13T07:12:26.606Z,68.88
2023-01-13T07:13:46.870Z,69.04
2023-01-13T07:15:07.144Z,68.60
2023-01-13T07:16:10.013Z,69.24
2023-01-13T07:17:11.774Z,68.90
2023-01-13T07:18:13.379Z,68.27
2023-01-13T07:19:15.887Z,68.12
2023-01-13T07:20:17.422Z,68.56
2023-01-13T07:21:20.058Z,68.23
2023-01-13T07:22:21.708Z,69.44
2023-01-13T07:23:24.236Z,68.61
2023-01-13T07:24:25.805Z,68.87
2023-01-13T07:25:27.471Z,68.52
2023-01-13T07:26:29.066Z,68.05
2023-01-13T07:27:30.699Z,68.49
2023-01-13T07:28:32.533Z,69.73
2023-01-13T07:29:34.127Z,68.49
2023-01-13T07:30:35.757Z,68.84
2023-01-13T07:31:37.507Z,68.14
2023-01-13T07:32:39.447Z,69.10
2023-01-13T07:33:41.075Z,69.53
2023-01-13T07:34:42.672Z,68.58
2023-01-13T07:35:45.062Z,68.88
2023-01-13T07:36:46.670Z,68.82
2023-01-13T07:37:48.721Z,68.63
2023-01-13T07:38:50.318Z,68.82
2023-01-13T07:39:51.954Z,69.00
2023-01-13T07:40:53.566Z,69.09
2023-01-13T07:42:13.888Z,69.16
2023-01-13T07:43:33.939Z,69.99
2023-01-13T07:44:35.645Z,69.61
2023-01-13T07:45:37.303Z,69.63
2023-01-13T07:46:39.127Z,69.39
2023-01-13T07:47:40.900Z,69.53
2023-01-13T07:48:42.628Z,69.35
2023-01-13T07:49:44.276Z,69.76
2023-01-13T07:50:45.928Z,69.66
2023-01-13T07:51:47.615Z,68.88
2023-01-13T07:52:50.453Z,69.59
2023-01-13T07:53:52.031Z,70.12
2023-01-13T07:54:53.634Z,69.73
2023-01-13T07:55:56.907Z,69.64
2023-01-13T07:56:58.578Z,70.02
2023-01-13T07:58:00.255Z,69.30
2023-01-13T07:59:01.960Z,71.15
2023-01-13T08:00:05.182Z,70.61
2023-01-13T08:01:12.170Z,69.22
2023-01-13T08:02:14.071Z,68.32
2023-01-13T08:03:15.857Z,68.57
2023-01-13T08:04:17.439Z,68.99
2023-01-13T08:05:19.087Z,69.08
2023-01-13T08:06:20.701Z,69.08
2023-01-13T08:07:22.278Z,68.68
2023-01-13T08:08:23.988Z,69.32
2023-01-13T08:09:25.636Z,69.46
2023-01-13T08:10:27.313Z,69.29
2023-01-13T08:11:28.858Z,68.96
2023-01-13T08:12:53.787Z,69.00
2023-01-13T08:13:58.821Z,68.89
2023-01-13T08:15:00.433Z,68.73
2023-01-13T08:16:10.247Z,68.57
2023-01-13T08:17:11.897Z,69.71
2023-01-13T08:18:13.782Z,69.13
2023-01-13T08:19:15.472Z,69.77
2023-01-13T08:20:17.129Z,69.64
2023-01-13T08:21:18.725Z,69.07
2023-01-13T08:22:20.334Z,69.30
2023-01-13T08:23:22.934Z,70.76
2023-01-13T08:24:24.461Z,70.03
2023-01-13T08:25:27.423Z,69.81
2023-01-13T08:26:28.999Z,69.77
2023-01-13T08:27:30.595Z,69.43
2023-01-13T08:28:32.509Z,69.04
2023-01-13T08:29:34.107Z,68.52
2023-01-13T08:30:35.816Z,68.71
2023-01-13T08:31:37.454Z,68.69
2023-01-13T08:32:39.046Z,68.21
2023-01-13T08:33:40.676Z,68.43
2023-01-13T08:34:42.288Z,68.43
2023-01-13T08:35:43.933Z,69.04
2023-01-13T08:36:45.529Z,68.99
2023-01-13T08:37:47.923Z,68.65
2023-01-13T08:38:49.597Z,68.46
2023-01-13T08:39:51.209Z,68.50
2023-01-13T08:40:52.964Z,68.41
2023-01-13T08:41:58.404Z,67.65
2023-01-13T08:43:00.581Z,67.73
2023-01-13T08:44:02.215Z,68.03
2023-01-13T08:45:04.609Z,68.07
2023-01-13T08:46:06.714Z,67.42
2023-01-13T08:47:08.408Z,68.02
2023-01-13T08:48:10.088Z,68.34
2023-01-13T08:49:11.716Z,67.58
2023-01-13T08:50:14.438Z,67.72
2023-01-13T08:51:16.060Z,67.71
2023-01-13T08:52:17.714Z,67.78
2023-01-13T08:53:20.090Z,66.90
2023-01-13T08:54:21.745Z,67.62
2023-01-13T08:55:23.381Z,68.31
2023-01-13T08:56:25.051Z,68.29
2023-01-13T08:57:26.734Z,67.68
2023-01-13T08:58:28.561Z,67.89
2023-01-13T08:59:30.341Z,68.74
2023-01-13T09:00:31.953Z,67.97
2023-01-13T09:01:33.999Z,68.27
2023-01-13T09:02:35.751Z,68.24
2023-01-13T09:03:39.080Z,68.68
2023-01-13T09:04:40.821Z,67.88
2023-01-13T09:05:42.540Z,68.29
2023-01-13T09:06:44.848Z,68.52
2023-01-13T09:07:46.464Z,68.23
2023-01-13T09:08:48.111Z,68.91
2023-01-13T09:09:49.777Z,67.57
2023-01-13T09:10:51.793Z,67.89
2023-01-13T09:12:12.397Z,67.47
2023-01-13T09:13:14.528Z,67.65
2023-01-13T09:14:20.817Z,67.13
2023-01-13T09:15:22.487Z,65.59
2023-01-13T09:16:24.122Z,65.92
2023-01-13T09:17:25.991Z,67.00
2023-01-13T09:18:27.628Z,67.11
2023-01-13T09:19:29.653Z,65.90
2023-01-13T09:20:31.279Z,65.08
2023-01-13T09:21:32.938Z,64.95
2023-01-13T09:22:36.362Z,62.34
2023-01-13T09:23:37.959Z,62.09
2023-01-13T09:24:39.584Z,63.35
2023-01-13T09:25:41.318Z,63.57
2023-01-13T09:26:42.925Z,64.96
2023-01-13T09:27:44.504Z,64.69
2023-01-13T09:28:46.124Z,63.27
2023-01-13T09:29:47.877Z,62.26
2023-01-13T09:30:49.518Z,62.26
2023-01-13T09:31:51.145Z,62.62
2023-01-13T09:33:12.775Z,63.20
2023-01-13T09:34:35.461Z,62.81
2023-01-13T09:35:37.131Z,62.52
2023-01-13T09:36:38.966Z,60.82
2023-01-13T09:37:41.369Z,60.50
2023-01-13T09:38:43.020Z,58.57
2023-01-13T09:39:44.640Z,59.17
2023-01-13T09:40:48.234Z,58.43
2023-01-13T09:42:09.624Z,58.71
2023-01-13T09:43:49.597Z,58.75
2023-01-13T09:45:08.865Z,60.57
2023-01-13T09:46:44.054Z,60.31
2023-01-13T09:47:58.124Z,59.83
2023-01-13T09:49:00.206Z,60.66
2023-01-13T09:50:26.967Z,60.51
2023-01-13T09:51:30.820Z,62.00
2023-01-13T09:52:32.531Z,61.38
2023-01-13T09:53:38.666Z,61.52
2023-01-13T09:54:43.366Z,62.27
2023-01-13T09:55:45.609Z,61.81
2023-01-13T09:56:47.513Z,62.28
2023-01-13T09:57:49.113Z,61.77
2023-01-13T09:58:50.751Z,62.81
2023-01-13T09:59:52.347Z,62.12
2023-01-13T10:01:19.047Z,61.44
2023-01-13T10:02:39.707Z,62.19
2023-01-13T10:03:41.415Z,60.78
2023-01-13T10:04:43.134Z,60.41
2023-01-13T10:05:52.055Z,59.49
2023-01-13T10:06:58.057Z,59.18
2023-01-13T10:08:05.231Z,56.89
2023-01-13T10:09:13.655Z,59.01
2023-01-13T10:10:40.537Z,59.28
2023-01-13T10:12:02.254Z,59.76
2023-01-13T10:13:14.242Z,61.21
2023-01-13T10:14:19.270Z,63.24
2023-01-13T10:15:23.111Z,63.18
2023-01-13T10:16:41.961Z,63.82
2023-01-13T10:17:51.666Z,63.80
2023-01-13T10:19:06.892Z,64.36
2023-01-13T10:20:27.912Z,64.01
2023-01-13T10:21:41.654Z,64.78
2023-01-13T10:22:52.078Z,64.79
2023-01-13T10:24:01.706Z,65.39
2023-01-13T10:25:20.420Z,64.81
2023-01-13T10:26:40.515Z,65.27
2023-01-13T10:27:43.817Z,66.49
2023-01-13T10:28:52.098Z,65.93
2023-01-13T10:29:53.675Z,64.98
2023-01-13T10:30:55.356Z,65.45
2023-01-13T10:31:59.233Z,65.21
2023-01-13T10:33:17.384Z,65.50
2023-01-13T10:34:20.521Z,65.46
2023-01-13T10:35:50.977Z,66.01
2023-01-13T10:37:03.107Z,66.14
2023-01-13T10:38:04.760Z,65.74
2023-01-13T10:39:15.872Z,65.40
2023-01-13T10:40:18.687Z,65.56
2023-01-13T10:41:25.590Z,65.98
2023-01-13T10:42:27.228Z,66.22
2023-01-13T10:43:29.946Z,66.20
2023-01-13T10:44:31.945Z,67.68
2023-01-13T10:45:33.604Z,67.67
2023-01-13T10:46:51.294Z,67.30
2023-01-13T10:48:06.791Z,67.40
2023-01-13T10:49:36.328Z,67.88
2023-01-13T10:50:38.592Z,69.13
2023-01-13T10:51:40.184Z,68.90
2023-01-13T10:52:56.808Z,68.35
2023-01-13T10:54:00.578Z,68.27
2023-01-13T10:55:02.483Z,68.01
2023-01-13T10:56:05.630Z,67.89
2023-01-13T10:57:35.948Z,68.60
2023-01-13T10:58:37.589Z,69.09
2023-01-13T10:59:39.174Z,67.89
2023-01-13T11:00:40.836Z,68.80
2023-01-13T11:02:13.001Z,68.60
2023-01-13T11:03:22.350Z,68.55
2023-01-13T11:04:39.306Z,67.97
2023-01-13T11:05:48.333Z,67.66
2023-01-13T11:06:49.943Z,67.37
2023-01-13T11:07:54.483Z,67.69
2023-01-13T11:08:58.444Z,67.46
2023-01-13T11:10:08.941Z,68.53
2023-01-13T11:11:27.971Z,68.64
2023-01-13T11:12:34.191Z,68.02
2023-01-13T11:14:01.744Z,68.18
2023-01-13T11:15:07.740Z,68.43
2023-01-13T11:16:16.697Z,69.11
2023-01-13T11:17:27.546Z,68.92
2023-01-13T11:18:32.290Z,69.26
2023-01-13T11:19:34.644Z,69.52
2023-01-13T11:20:41.287Z,69.13
2023-01-13T11:22:02.932Z,68.97
2023-01-13T11:23:13.522Z,69.32
2023-01-13T11:24:24.544Z,69.64
2023-01-13T11:25:42.086Z,68.87
2023-01-13T11:27:23.948Z,68.82
2023-01-13T11:28:36.378Z,69.42
2023-01-13T11:30:12.277Z,70.17
2023-01-13T11:31:22.709Z,70.47
2023-01-13T11:32:24.925Z,69.95
2023-01-13T11:33:30.481Z,70.82
2023-01-13T11:34:40.631Z,70.33
2023-01-13T11:35:46.160Z,70.29
2023-01-13T11:36:51.727Z,70.16
2023-01-13T11:38:04.648Z,71.10
2023-01-13T11:39:19.154Z,70.50
2023-01-13T11:40:48.827Z,70.27
2023-01-13T11:42:16.202Z,70.80
2023-01-13T11:43:28.694Z,70.39
2023-01-13T11:44:47.034Z,70.81
2023-01-13T11:45:55.284Z,70.74
2023-01-13T11:46:56.944Z,70.46
2023-01-13T11:48:00.363Z,70.63
2023-01-13T11:49:03.678Z,70.46
2023-01-13T11:50:15.136Z,71.28
2023-01-13T11:51:34.746Z,70.86
2023-01-13T11:52:45.425Z,70.75
2023-01-13T11:53:53.243Z,70.47
2023-01-13T11:55:16.401Z,70.45
2023-01-13T11:56:57.467Z,69.46
2023-01-13T11:58:28.974Z,69.17
2023-01-13T11:59:40.970Z,69.50
2023-01-13T12:00:45.862Z,69.07
2023-01-13T12:02:11.846Z,68.57
2023-01-13T12:03:19.173Z,68.94
2023-01-13T12:04:25.178Z,68.46
2023-01-13T12:05:42.772Z,69.20
2023-01-13T12:06:46.044Z,68.49
2023-01-13T12:08:10.907Z,68.88
2023-01-13T12:09:57.599Z,69.72
2023-01-13T12:10:59.265Z,69.05
2023-01-13T12:12:20.028Z,69.60
2023-01-13T12:13:27.473Z,69.33
2023-01-13T12:15:07.018Z,69.37
2023-01-13T12:16:15.019Z,69.18
2023-01-13T12:17:34.951Z,68.95
2023-01-13T12:19:07.740Z,69.79
2023-01-13T12:20:23.662Z,70.08
2023-01-13T12:21:38.843Z,70.01
2023-01-13T12:22:41.695Z,69.84
2023-01-13T12:24:04.706Z,69.71
2023-01-13T12:25:15.648Z,68.21
2023-01-13T12:26:17.597Z,67.72
2023-01-13T12:27:27.230Z,68.06
2023-01-13T12:28:41.617Z,68.05
2023-01-13T12:29:44.695Z,67.05
2023-01-13T12:30:52.050Z,67.74
2023-01-13T12:31:53.992Z,68.46
2023-01-13T12:33:00.793Z,67.80
2023-01-13T12:34:32.358Z,68.19
2023-01-13T12:35:39.023Z,67.83
2023-01-13T12:36:59.235Z,68.77
2023-01-13T12:38:13.679Z,67.74
2023-01-13T12:39:18.432Z,67.52
2023-01-13T12:40:20.153Z,67.19
2023-01-13T12:41:27.622Z,67.64
2023-01-13T12:42:52.573Z,68.20
2023-01-13T12:44:12.855Z,68.79
2023-01-13T12:45:14.458Z,67.87
2023-01-13T12:46:19.081Z,67.40
2023-01-13T12:47:53.237Z,67.62
2023-01-13T12:48:56.657Z,67.99
2023-01-13T12:50:26.153Z,68.82
2023-01-13T12:51:52.600Z,69.00
2023-01-13T12:53:01.564Z,69.40
2023-01-13T12:54:32.164Z,67.74
2023-01-13T12:55:35.044Z,68.65
2023-01-13T12:56:42.211Z,68.30
2023-01-13T12:57:55.739Z,68.87
2023-01-13T12:59:19.419Z,69.30
2023-01-13T13:00:21.144Z,68.30
2023-01-13T13:01:35.355Z,69.21
2023-01-13T13:02:41.162Z,69.88
2023-01-13T13:04:21.636Z,69.77
2023-01-13T13:05:23.198Z,69.65
2023-01-13T13:06:29.542Z,69.47
2023-01-13T13:07:31.085Z,69.83
2023-01-13T13:08:45.218Z,70.23
2023-01-13T13:09:53.401Z,69.88
2023-01-13T13:11:34.659Z,69.44
2023-01-13T13:13:01.148Z,70.49
2023-01-13T13:14:05.533Z,70.49
2023-01-13T13:15:28.768Z,69.46
2023-01-13T13:16:30.441Z,68.83
2023-01-13T13:17:32.094Z,68.77
2023-01-13T13:18:33.971Z,69.34
2023-01-13T13:19:35.501Z,69.39
2023-01-13T13:21:09.846Z,69.34
2023-01-13T13:22:19.050Z,69.13
2023-01-13T13:23:28.099Z,69.94
2023-01-13T13:24:29.739Z,69.66
2023-01-13T13:25:31.498Z,68.36
2023-01-13T13:26:38.712Z,72.33
2023-01-13T13:27:50.607Z,76.30
2023-01-13T13:29:13.866Z,77.06
2023-01-13T13:30:27.137Z,79.93
2023-01-13T13:31:47.342Z,82.08
2023-01-13T13:33:28.090Z,83.26
2023-01-13T13:35:03.207Z,84.07
2023-01-13T13:36:35.575Z,85.30
2023-01-13T13:38:05.092Z,86.90
2023-01-13T13:39:37.596Z,87.04
2023-01-13T13:41:03.113Z,87.21
2023-01-13T13:42:34.463Z,87.32
2023-01-13T13:44:03.198Z,88.02
2023-01-13T13:45:40.304Z,88.18
2023-01-13T13:46:49.114Z,88.63
2023-01-13T13:47:51.521Z,88.58
2023-01-13T13:48:54.644Z,88.35
2023-01-13T13:50:04.779Z,88.21
2023-01-13T13:51:28.809Z,87.64
2023-01-13T13:52:35.998Z,86.95
2023-01-13T13:53:40.640Z,87.49
2023-01-13T13:54:47.561Z,85.59
2023-01-13T13:55:59.771Z,85.88
2023-01-13T13:57:01.492Z,84.98
2023-01-13T13:58:03.107Z,86.17
2023-01-13T13:59:04.737Z,85.83
2023-01-13T14:00:27.879Z,85.87
2023-01-13T14:01:40.890Z,84.28
2023-01-13T14:02:48.723Z,84.98
2023-01-13T14:04:18.285Z,86.11
2023-01-13T14:05:20.036Z,84.59
2023-01-13T14:06:24.331Z,84.49
2023-01-13T14:07:26.290Z,84.77
2023-01-13T14:08:30.078Z,84.46
2023-01-13T14:09:41.803Z,84.88
2023-01-13T14:10:45.946Z,84.38
2023-01-13T14:11:58.415Z,84.94
2023-01-13T14:13:01.503Z,84.76
2023-01-13T14:14:12.552Z,84.38
2023-01-13T14:15:35.265Z,84.16
2023-01-13T14:16:38.115Z,85.84
2023-01-13T14:17:39.704Z,85.09
2023-01-13T14:18:48.111Z,84.69
2023-01-13T14:20:05.316Z,84.05
2023-01-13T14:21:27.483Z,84.02
2023-01-13T14:22:29.161Z,83.74
2023-01-13T14:23:32.787Z,86.05
2023-01-13T14:24:45.407Z,83.93
2023-01-13T14:25:48.697Z,83.99
2023-01-13T14:26:53.104Z,84.67
2023-01-13T14:27:55.946Z,84.87
2023-01-13T14:28:59.335Z,85.01
2023-01-13T14:30:01.322Z,84.59
2023-01-13T14:31:04.273Z,83.95